Terminal Aerodrome Forecast
Issued by NWS Pocatello, ID

Home | Current Version | Previous Version | Text Only | Print | Product List | Glossary On
Versions: 1 2 3 4 5 6 7 8 9 10 11 12 13 14 15
000
FTUS45 KPIH 292031 AAA
TAFBYI
TAF AMD
KBYI 292031Z 2921/3018 27008KT P6SM -SHRA VCTS FEW060CB SCT100
      SCT250
     FM300000 18010KT P6SM VCTS SCT090CB SCT250
     FM300300 VRB05KT P6SM VCSH SCT100 SCT160
     FM301200 25010KT P6SM FEW070=

USA.gov is the U.S. government's official web portal to all federal, state and local government web resources and services.